Piedra, Colorado
Current Conditions -  °F | °C
As of 12:15 PM on Saturday 25 Oct 2014 (Local Time) from KPSO Reporting Station
Clear Clear  
Wind Chill: 65°   Ceiling: Unl
Heat Index: 65°   Visibility: 10mi
Dew Point: 25°   Wind: 5mph
Humidity: 22%   Direction: 180°S
Pressure: 30.41"   Gusts: NA
Location:  37.2078°N, 107.304°W
Report Text: KPSO 251815Z AUTO 18004KT 10SM CLR 19/M04 A3041 RMK AO2 T01851040
Loading
Personal Weather Stations






























Interactive Weather Map
Tropical Storm Tracking
New forecast layout! Learn more

10-Day Weather Forecast

Advertisements
Track Severe Weather on mobile